METAR UND TAF INFORMATION
EDLP 270250Z 16004KT CAVOK 15/10 Q1020

 FLUGHAFENKARTE

 RUNWAY INFORMATION
Runway 06 Runway length 7152 ft Runway width 148 ft
Runway elevation 699 ft Runway displaced threshold 0 ft Runway heading 57
Runway 24 Runway length 7152 ft Runway width 148 ft
Runway elevation 674 ft Runway displaced threshold 0 ft Runway heading 237

 AIRPORT FREQUENCIES
Type ATIS Name ATIS Frequency 125.725 MHZ
Type GND Name GND Frequency 121.925 MHZ
Type INFO Name LANGEN INF Frequency 129.875 MHZ
Type OPS Name DISPATCH Frequency 130.425 MHZ
Type RDR Name LANGEN RAD Frequency 125.225 MHZ
Type TWR Name TWR Frequency 133.375 MHZ

 AIRPORT NEAR NAVIGATION AIDS
Type NDB-DME Name Paderborn/Lippstadt Frequency 354 KHZ



Aktuelle Version 4.2.2: Changelog

Impressum | Datenschutzerklärung

Powered by Cedric Balogh | Virtual Airlines Manager